Paradise, Montana
Current Conditions -  °F | °C
As of 6:53 AM on Thursday 29 Jan 2015 (Local Time) from KMLP Reporting Station
Clear Clear  
Wind Chill: -5°   Ceiling: Unl
Heat Index: -2°   Visibility: 10mi
Dew Point: -6°   Wind: 5mph
Humidity: 75%   Direction: 220°SW
Pressure: 30.33"   Gusts: NA
Location:  47.39°N, 114.8°W
Report Text: KMLP 291353Z AUTO 22004KT 10SM CLR M02/M06 A3033 RMK AO2 SLP309 T10221061
Loading
Personal Weather Stations






























Interactive Weather Map New forecast layout! Learn more

10-Day Weather Forecast

Advertisements
Track Severe Weather on mobile